Terminal Aerodrome Forecast
Issued by NWS Sterling, VA

Current Version | Previous Version | Graphics & Text | Print | Product List | Glossary On
Versions: 1 2 3 4 5 6 7 8 9 10 11 12 13 14 15 16 17 18 19 20 21 22 23
000
FTUS41 KLWX 240340 AAC
TAFIAD
TAF AMD
KIAD 240340Z 2404/2506 VRB03KT 6SM -SHRA VCTS BKN070CB
      TEMPO 2404/2406 3SM -TSRA BR BKN025CB
     FM240600 VRB03KT P6SM BKN070
     FM241200 28005KT P6SM SCT250
     FM241400 30007KT P6SM SCT040
     FM250400 VRB03KT P6SM SCT070=

USA.gov is the U.S. government's official web portal to all federal, state and local government web resources and services.